TAF LFYR
METAR LFYR
LFYR 082130Z AUTO 24003KT CAVOK M00/M00 Q1006=
LFYR 082100Z AUTO 25002KT CAVOK M00/M00 Q1006=
LFYR 082030Z AUTO 25001KT CAVOK 01/M01 Q1006=
LFYR 082000Z AUTO VRB02KT CAVOK 02/02 Q1005=
LFYR 081930Z AUTO 23003KT CAVOK 02/02 Q1005=
WC LFYR
WS LFYR
WV LFYR